Time;durP1;ratioP1;P1;durP2;ratioP2;P2;SDS_P1;SDS_P2;PMS_P1;PMS_P2;Temp;Humidity;BMP_temperature;BMP_pressure;BME280_temperature;BME280_humidity;BME280_pressure;Samples;Min_cycle;Max_cycle;Signal;HPM_P1;HPM_P2
2021/06/11 07:05:49;;;;;;;8.30;7.28;;;;;;;;;;12984855;22;433150;-85
2021/06/11 07:10:54;;;;;;;10.30;7.13;;;;;;;;;;12974916;22;20012;-87
2021/06/11 07:15:55;;;;;;;5.15;4.25;;;;;;;;;;12979693;22;20008;-86
2021/06/11 07:20:58;;;;;;;6.07;4.50;;;;;;;;;;12974981;22;20008;-86
2021/06/11 07:26:02;;;;;;;5.95;5.35;;;;;;;;;;12994140;22;20004;-86
2021/06/11 07:31:05;;;;;;;10.02;9.02;;;;;;;;;;12987918;22;20062;-86
2021/06/11 07:36:06;;;;;;;8.95;8.05;;;;;;;;;;12975476;22;20498;-86
2021/06/11 07:41:07;;;;;;;12.43;7.28;;;;;;;;;;12981186;22;20011;-86
2021/06/11 07:46:08;;;;;;;7.05;5.70;;;;;;;;;;12968715;22;20004;-85
2021/06/11 07:51:09;;;;;;;5.95;4.60;;;;;;;;;;12971389;22;20064;-83
2021/06/11 07:56:11;;;;;;;8.15;7.05;;;;;;;;;;12952693;22;20408;-85
2021/06/11 08:01:15;;;;;;;8.05;5.40;;;;;;;;;;12975627;22;20000;-84
2021/06/11 08:06:16;;;;;;;5.97;4.50;;;;;;;;;;12976035;22;20022;-83
2021/06/11 08:11:17;;;;;;;4.60;4.13;;;;;;;;;;12974052;22;20050;-86
2021/06/11 08:16:18;;;;;;;6.10;4.72;;;;;;;;;;12970017;22;20000;-86
2021/06/11 08:21:20;;;;;;;6.40;5.80;;;;;;;;;;12970924;22;20021;-86
2021/06/11 08:26:22;;;;;;;7.80;6.85;;;;;;;;;;12974942;22;20055;-86
2021/06/11 08:31:23;;;;;;;8.77;5.32;;;;;;;;;;12975669;22;20061;-85
2021/06/11 08:36:24;;;;;;;4.53;4.10;;;;;;;;;;13020685;22;20447;-84
2021/06/11 08:41:28;;;;;;;9.93;6.15;;;;;;;;;;13000579;22;20109;-86
2021/06/11 08:46:31;;;;;;;4.93;4.30;;;;;;;;;;13001954;22;20042;-85
2021/06/11 08:51:32;;;;;;;8.52;5.22;;;;;;;;;;13022946;22;20000;-86
2021/06/11 08:56:34;;;;;;;6.72;5.80;;;;;;;;;;12991502;22;20335;-85
2021/06/11 09:01:35;;;;;;;6.30;5.70;;;;;;;;;;13020570;22;20459;-87
2021/06/11 09:06:36;;;;;;;6.10;5.50;;;;;;;;;;12976362;22;20026;-87
2021/06/11 09:11:37;;;;;;;7.45;5.18;;;;;;;;;;12971238;22;20023;-85
2021/06/11 09:16:55;;;;;;;8.60;7.80;;;;;;;;;;12973216;22;20397;-86
2021/06/11 09:22:01;;;;;;;6.90;5.80;;;;;;;;;;12976450;22;20007;-85
2021/06/11 09:27:07;;;;;;;9.15;5.30;;;;;;;;;;12987120;22;20047;-88
2021/06/11 09:32:32;;;;;;;6.13;5.50;;;;;;;;;;12970866;22;20000;-86
2021/06/11 09:37:41;;;;;;;6.30;5.00;;;;;;;;;;13001131;22;19996;-86
2021/06/11 09:42:44;;;;;;;5.60;4.40;;;;;;;;;;12974033;22;20011;-85
2021/06/11 09:47:47;;;;;;;8.90;5.43;;;;;;;;;;12974435;22;20003;-85
2021/06/11 09:52:52;;;;;;;5.10;4.40;;;;;;;;;;12994597;22;19995;-84
2021/06/11 09:58:15;;;;;;;6.45;5.28;;;;;;;;;;12998727;22;20003;-84
2021/06/11 10:03:30;;;;;;;5.85;5.28;;;;;;;;;;12990281;22;20031;-87
2021/06/11 10:08:31;;;;;;;5.35;4.85;;;;;;;;;;12981647;22;20019;-85
2021/06/11 10:13:34;;;;;;;6.28;5.38;;;;;;;;;;12970094;22;20000;-84
2021/06/11 10:18:36;;;;;;;5.38;4.88;;;;;;;;;;13011740;22;20008;-84
2021/06/11 10:23:39;;;;;;;6.32;4.65;;;;;;;;;;13010199;22;20016;-85
2021/06/11 10:28:40;;;;;;;5.18;3.72;;;;;;;;;;13005429;22;20009;-85
2021/06/11 10:33:46;;;;;;;4.43;4.03;;;;;;;;;;12968566;22;20515;-85
2021/06/11 10:38:49;;;;;;;6.43;5.93;;;;;;;;;;12969982;22;20004;-85
2021/06/11 10:43:51;;;;;;;6.00;4.63;;;;;;;;;;12973962;22;20075;-86
2021/06/11 10:49:17;;;;;;;5.38;4.57;;;;;;;;;;12944767;22;20011;-87
2021/06/11 10:54:22;;;;;;;4.07;3.45;;;;;;;;;;12969463;22;20004;-89
2021/06/11 10:59:40;;;;;;;5.35;4.15;;;;;;;;;;12969871;22;20088;-86
2021/06/11 11:04:47;;;;;;;4.43;4.03;;;;;;;;;;12971597;22;20011;-86
2021/06/11 11:09:52;;;;;;;4.45;3.60;;;;;;;;;;12876839;22;20049;-83
2021/06/11 11:14:53;;;;;;;5.00;3.50;;;;;;;;;;12869442;23;20027;-84
2021/06/11 11:19:54;;;;;;;4.93;3.85;;;;;;;;;;12870295;23;20001;-84
2021/06/11 11:24:57;;;;;;;4.35;3.88;;;;;;;;;;12872937;23;20444;-84
2021/06/11 11:30:13;;;;;;;6.00;4.55;;;;;;;;;;12878127;23;20027;-85
2021/06/11 11:41:21;;;;;;;4.72;3.60;;;;;;;;;;12857270;23;20017;-83
2021/06/11 11:46:22;;;;;;;4.13;3.45;;;;;;;;;;12874192;23;20016;-84
2021/06/11 11:51:24;;;;;;;4.35;3.75;;;;;;;;;;12873549;23;20016;-83
2021/06/11 11:56:25;;;;;;;6.15;3.30;;;;;;;;;;12849469;23;20010;-84
2021/06/11 12:01:26;;;;;;;5.40;2.80;;;;;;;;;;12871474;23;20004;-83
2021/06/11 12:06:27;;;;;;;6.70;3.85;;;;;;;;;;12870075;23;20095;-85
2021/06/11 12:11:28;;;;;;;3.47;2.90;;;;;;;;;;12871368;23;20004;-84
2021/06/11 12:16:31;;;;;;;6.25;3.65;;;;;;;;;;12870995;23;20032;-84
2021/06/11 12:21:59;;;;;;;3.03;2.60;;;;;;;;;;12845404;23;20067;-84
2021/06/11 12:27:20;;;;;;;5.05;3.60;;;;;;;;;;12854718;23;20032;-83
2021/06/11 12:32:21;;;;;;;4.05;3.40;;;;;;;;;;12871561;23;20012;-84
2021/06/11 12:37:22;;;;;;;3.28;2.97;;;;;;;;;;12868576;23;20422;-84
2021/06/11 12:42:31;;;;;;;4.00;2.78;;;;;;;;;;12870822;23;20012;-85
2021/06/11 12:47:34;;;;;;;4.53;4.10;;;;;;;;;;12868427;23;20028;-85
2021/06/11 12:52:35;;;;;;;3.63;3.30;;;;;;;;;;12866578;23;20004;-84
2021/06/11 12:57:36;;;;;;;4.38;3.45;;;;;;;;;;12868160;23;20001;-85
2021/06/11 13:02:37;;;;;;;3.58;3.08;;;;;;;;;;12867689;23;20347;-84
2021/06/11 13:07:38;;;;;;;3.97;3.20;;;;;;;;;;12866674;23;20433;-86
2021/06/11 13:12:41;;;;;;;4.97;3.95;;;;;;;;;;12880304;23;20487;-85
2021/06/11 13:17:42;;;;;;;5.13;3.67;;;;;;;;;;12868637;23;20005;-85
2021/06/11 13:22:44;;;;;;;3.75;3.03;;;;;;;;;;12879205;23;20099;-85
2021/06/11 13:27:45;;;;;;;3.30;2.72;;;;;;;;;;12866602;23;20011;-85
2021/06/11 13:32:46;;;;;;;6.20;5.60;;;;;;;;;;12867454;23;20275;-85
2021/06/11 13:37:47;;;;;;;4.80;3.70;;;;;;;;;;12868589;23;20001;-86
2021/06/11 13:42:48;;;;;;;4.40;3.67;;;;;;;;;;12867780;23;20008;-85
2021/06/11 13:47:49;;;;;;;3.92;2.53;;;;;;;;;;12866412;23;20005;-85
2021/06/11 13:52:52;;;;;;;4.05;3.58;;;;;;;;;;12867853;23;20009;-85
2021/06/11 13:57:56;;;;;;;3.90;3.20;;;;;;;;;;12866695;23;20008;-85
2021/06/11 14:02:58;;;;;;;4.07;3.17;;;;;;;;;;12870269;23;20028;-84
2021/06/11 14:08:01;;;;;;;3.42;2.33;;;;;;;;;;12866072;23;20017;-85
2021/06/11 14:13:15;;;;;;;4.32;2.63;;;;;;;;;;12867331;23;20009;-85
2021/06/11 14:18:17;;;;;;;4.15;2.47;;;;;;;;;;12871819;23;20032;-86
2021/06/11 14:23:18;;;;;;;2.42;2.20;;;;;;;;;;12874183;23;20413;-85
2021/06/11 14:28:19;;;;;;;2.80;2.60;;;;;;;;;;12879809;23;20028;-86
2021/06/11 14:33:42;;;;;;;3.03;2.17;;;;;;;;;;12871775;23;20004;-85
2021/06/11 14:39:03;;;;;;;5.05;2.55;;;;;;;;;;12869199;23;20059;-83
2021/06/11 14:44:05;;;;;;;3.58;2.00;;;;;;;;;;12874359;23;20004;-83
2021/06/11 14:49:06;;;;;;;2.38;1.75;;;;;;;;;;12888875;23;20035;-84
2021/06/11 14:54:07;;;;;;;3.63;3.20;;;;;;;;;;12897790;23;20036;-84
2021/06/11 14:59:09;;;;;;;2.65;2.05;;;;;;;;;;12896740;23;19997;-84
2021/06/11 15:04:10;;;;;;;4.25;2.05;;;;;;;;;;12898623;23;20008;-84
2021/06/11 15:09:11;;;;;;;2.40;1.80;;;;;;;;;;12895520;23;20009;-85
2021/06/11 15:14:12;;;;;;;3.28;1.80;;;;;;;;;;12892078;23;20016;-81
2021/06/11 15:19:13;;;;;;;3.13;1.90;;;;;;;;;;12889992;23;20008;-83
2021/06/11 15:24:16;;;;;;;5.60;3.03;;;;;;;;;;12890253;23;20340;-82
2021/06/11 15:29:17;;;;;;;2.22;2.03;;;;;;;;;;12871951;23;20011;-83
2021/06/11 15:34:18;;;;;;;2.85;2.17;;;;;;;;;;12892352;23;20109;-82
2021/06/11 15:39:25;;;;;;;2.95;2.08;;;;;;;;;;12890869;23;20001;-82
2021/06/11 15:44:33;;;;;;;3.33;2.15;;;;;;;;;;12892870;23;20008;-82
2021/06/11 15:49:37;;;;;;;2.55;2.08;;;;;;;;;;12892279;23;20004;-82
2021/06/11 15:54:39;;;;;;;2.92;2.08;;;;;;;;;;12892144;23;20019;-85
2021/06/11 15:59:42;;;;;;;4.22;1.98;;;;;;;;;;12891883;23;20082;-85
2021/06/11 16:04:48;;;;;;;2.47;1.92;;;;;;;;;;12891063;23;20460;-85
2021/06/11 16:10:00;;;;;;;3.15;2.72;;;;;;;;;;12893865;23;20020;-84
2021/06/11 16:15:08;;;;;;;29.17;4.25;;;;;;;;;;12887060;23;20012;-85
2021/06/11 16:20:20;;;;;;;;;;;;;;;;;;12855070;23;19997;-84
2021/06/11 16:25:21;;;;;;;3.08;2.33;;;;;;;;;;12887849;23;19900;-84
2021/06/11 16:31:06;;;;;;;5.72;2.78;;;;;;;;;;12700030;23;20014;-84
2021/06/11 16:54:17;;;;;;;4.43;2.67;;;;;;;;;;12818775;23;20013;-87
2021/06/11 17:00:04;;;;;;;3.00;2.60;;;;;;;;;;12632065;23;20002;-87
2021/06/11 17:10:33;;;;;;;;;;;;;;;;;;12875800;23;20130;-87
2021/06/11 17:15:40;;;;;;;3.83;3.17;;;;;;;;;;12879523;23;19931;-86
2021/06/11 17:20:47;;;;;;;4.00;3.53;;;;;;;;;;12880536;23;20053;-88
2021/06/11 17:26:03;;;;;;;5.30;4.05;;;;;;;;;;12871858;23;20011;-87
2021/06/11 17:31:36;;;;;;;6.00;3.53;;;;;;;;;;12873456;23;20035;-87
2021/06/11 17:36:37;;;;;;;7.25;3.70;;;;;;;;;;12874569;23;20000;-88
2021/06/11 17:41:43;;;;;;;6.00;3.83;;;;;;;;;;12890704;23;20028;-87
2021/06/11 17:46:47;;;;;;;5.57;4.10;;;;;;;;;;12864615;23;20015;-87
2021/06/11 17:51:48;;;;;;;4.90;4.40;;;;;;;;;;12879720;23;20004;-87
2021/06/11 17:56:50;;;;;;;5.68;4.50;;;;;;;;;;12886044;23;20000;-87
2021/06/11 18:02:27;;;;;;;10.18;9.18;;;;;;;;;;12876553;23;20012;-88
2021/06/11 18:07:28;;;;;;;5.78;4.60;;;;;;;;;;12873400;23;20020;-87
2021/06/11 18:12:29;;;;;;;6.70;5.50;;;;;;;;;;12871367;23;20088;-87
2021/06/11 18:17:32;;;;;;;5.60;4.90;;;;;;;;;;12873107;23;20023;-87
2021/06/11 18:22:41;;;;;;;6.18;4.22;;;;;;;;;;12871572;23;20088;-88
2021/06/11 18:27:41;;;;;;;8.15;5.45;;;;;;;;;;12878194;23;20012;-88
2021/06/11 18:32:43;;;;;;;6.18;5.25;;;;;;;;;;12873318;23;20000;-87
2021/06/11 18:37:44;;;;;;;5.28;4.78;;;;;;;;;;12869388;23;20055;-87
2021/06/11 18:42:55;;;;;;;9.65;5.60;;;;;;;;;;12873499;23;20055;-88
2021/06/11 18:53:33;;;;;;;5.65;4.75;;;;;;;;;;12916222;22;20027;-87
2021/06/11 18:58:35;;;;;;;6.82;5.85;;;;;;;;;;12869352;23;20040;-88
2021/06/11 19:03:49;;;;;;;7.43;6.63;;;;;;;;;;12887024;23;20000;-88
2021/06/11 19:08:51;;;;;;;6.90;6.00;;;;;;;;;;12883249;23;20257;-87
